Time;durP1;ratioP1;P1;durP2;ratioP2;P2;SDS_P1;SDS_P2;PMS_P1;PMS_P2;Temp;Humidity;BMP_temperature;BMP_pressure;BME280_temperature;BME280_humidity;BME280_pressure;Samples;Min_cycle;Max_cycle;Signal;HPM_P1;HPM_P2
2022/05/18 00:00:57;339773.00;1.13;586.28;0.00;0.00;0.62;;;;;21.00;1.00;;;;;;2272494;61;1093;-87
2022/05/18 00:03:27;0.00;0.00;0.62;0.00;0.00;0.62;;;;;20.80;1.00;;;;;;2272469;61;1358;-88
2022/05/18 00:05:55;54120.00;0.18;94.31;0.00;0.00;0.62;;;;;20.50;1.00;;;;;;2272391;61;1022;-87
2022/05/18 00:08:22;0.00;0.00;0.62;0.00;0.00;0.62;;;;;20.50;1.00;;;;;;2272449;61;1993;-85
2022/05/18 00:10:51;375.00;0.00;1.27;0.00;0.00;0.62;;;;;20.50;1.00;;;;;;2272447;61;933;-86
2022/05/18 00:13:18;0.00;0.00;0.62;0.00;0.00;0.62;;;;;20.30;1.00;;;;;;2272277;61;1277;-86
2022/05/18 00:15:47;59596.00;0.20;103.78;0.00;0.00;0.62;;;;;20.30;1.00;;;;;;2272116;61;1052;-85
2022/05/18 00:18:14;72738.00;0.24;126.49;0.00;0.00;0.62;;;;;20.30;1.00;;;;;;2272205;61;1717;-86
2022/05/18 00:20:42;0.00;0.00;0.62;0.00;0.00;0.62;;;;;20.30;1.00;;;;;;2272188;61;1059;-86
2022/05/18 00:23:11;68623.00;0.23;119.38;0.00;0.00;0.62;;;;;20.30;1.00;;;;;;2272319;61;1273;-87
2022/05/18 00:25:40;0.00;0.00;0.62;0.00;0.00;0.62;;;;;20.40;1.00;;;;;;2272385;61;1045;-86
2022/05/18 00:28:08;43299.00;0.14;75.60;0.00;0.00;0.62;;;;;20.20;1.00;;;;;;2272390;61;1095;-86
2022/05/18 00:30:38;59894.00;0.20;104.29;0.00;0.00;0.62;;;;;20.20;1.00;;;;;;2272323;61;1943;-86
2022/05/18 00:33:06;283202.00;0.94;489.04;4876.00;0.02;9.07;;;;;20.30;1.00;;;;;;2272248;61;1350;-85
2022/05/18 00:35:36;0.00;0.00;0.62;0.00;0.00;0.62;;;;;20.20;1.00;;;;;;2272380;61;1074;-87
2022/05/18 00:38:04;19446.00;0.06;34.31;0.00;0.00;0.62;;;;;20.30;1.00;;;;;;2272309;61;1151;-85
2022/05/18 00:40:32;64398.00;0.21;112.08;0.00;0.00;0.62;;;;;20.30;1.00;;;;;;2272328;61;997;-86
2022/05/18 00:42:59;17490.00;0.06;30.92;0.00;0.00;0.62;;;;;20.40;1.00;;;;;;2272179;61;1647;-86
2022/05/18 00:45:27;99148.00;0.33;172.10;0.00;0.00;0.62;;;;;20.40;1.00;;;;;;2272404;61;1087;-87
2022/05/18 00:47:54;0.00;0.00;0.62;0.00;0.00;0.62;;;;;20.30;1.00;;;;;;2272328;61;1046;-87
2022/05/18 00:50:26;17188.00;0.06;30.40;0.00;0.00;0.62;;;;;20.40;1.00;;;;;;2272295;61;1915;-86
2022/05/18 00:53:00;16196.00;0.05;28.68;0.00;0.00;0.62;;;;;20.40;1.00;;;;;;2272199;61;2064;-84
2022/05/18 00:55:34;20480.00;0.07;36.10;0.00;0.00;0.62;;;;;20.10;1.00;;;;;;2272290;61;1120;-85
2022/05/18 00:58:08;183381.00;0.61;317.31;31433.00;0.10;55.06;;;;;20.20;1.00;;;;;;2272251;61;1093;-84
2022/05/18 01:00:36;86707.00;0.29;150.62;0.00;0.00;0.62;;;;;20.30;1.00;;;;;;2272255;61;807;-86
2022/05/18 01:03:11;0.00;0.00;0.62;0.00;0.00;0.62;;;;;20.10;1.00;;;;;;2272929;61;1378;-85
2022/05/18 01:05:44;106600.00;0.36;184.96;34136.00;0.11;59.74;;;;;19.90;1.00;;;;;;2272905;61;1014;-86
2022/05/18 01:08:19;139425.00;0.46;241.58;26617.00;0.09;46.73;;;;;20.00;1.00;;;;;;2272986;61;1085;-86
2022/05/18 01:10:47;0.00;0.00;0.62;0.00;0.00;0.62;;;;;20.00;1.00;;;;;;2272976;61;2001;-87
2022/05/18 01:13:14;75048.00;0.25;130.48;7174.00;0.02;13.05;;;;;20.10;1.00;;;;;;2272914;61;1288;-87
2022/05/18 01:15:41;13603.00;0.05;24.19;0.00;0.00;0.62;;;;;20.00;1.00;;;;;;2272900;61;1098;-87
2022/05/18 01:18:08;73298.00;0.24;127.46;0.00;0.00;0.62;;;;;20.00;1.00;;;;;;2273017;61;1147;-86
2022/05/18 01:20:38;163612.00;0.55;283.26;0.00;0.00;0.62;;;;;19.80;1.00;;;;;;2272999;61;1110;-85
2022/05/18 01:23:30;0.00;0.00;0.62;0.00;0.00;0.62;;;;;19.80;1.00;;;;;;2272791;61;1718;-88
2022/05/18 01:26:16;272938.00;0.91;471.40;86182.00;0.29;149.71;;;;;19.80;1.00;;;;;;2272979;61;1041;-87
2022/05/18 01:28:51;125435.00;0.42;217.46;0.00;0.00;0.62;;;;;19.80;1.00;;;;;;2272921;61;1047;-86
2022/05/18 01:31:19;2734.00;0.01;5.36;0.00;0.00;0.62;;;;;19.90;1.00;;;;;;2272878;61;1094;-87
2022/05/18 01:33:46;24652.00;0.08;43.33;0.00;0.00;0.62;;;;;20.00;1.00;;;;;;2272871;61;1484;-86
2022/05/18 01:36:13;43367.00;0.14;75.71;0.00;0.00;0.62;;;;;20.10;1.00;;;;;;2272924;61;2167;-87
2022/05/18 01:38:41;216994.00;0.72;375.17;45063.00;0.15;78.65;;;;;20.20;1.00;;;;;;2272937;61;1108;-86
2022/05/18 01:41:15;45275.00;0.15;79.01;0.00;0.00;0.62;;;;;20.10;1.00;;;;;;2272818;61;1104;-86
2022/05/18 01:43:48;0.00;0.00;0.62;0.00;0.00;0.62;;;;;19.90;1.00;;;;;;2272693;61;1391;-85
2022/05/18 01:46:18;0.00;0.00;0.62;0.00;0.00;0.62;;;;;19.70;1.00;;;;;;2272805;61;1150;-84
2022/05/18 01:48:47;11240.00;0.04;20.10;0.00;0.00;0.62;;;;;19.60;1.00;;;;;;2272877;61;1071;-84
2022/05/18 01:51:22;101604.00;0.34;176.34;35393.00;0.12;61.92;;;;;19.60;1.00;;;;;;2272860;61;1932;-87
2022/05/18 01:53:49;0.00;0.00;0.62;0.00;0.00;0.62;;;;;19.50;1.00;;;;;;2272825;61;1352;-87
2022/05/18 01:56:16;352445.00;1.17;608.06;23975.00;0.08;42.15;;;;;19.70;1.00;;;;;;2272884;61;1145;-86
2022/05/18 01:58:43;0.00;0.00;0.62;0.00;0.00;0.62;;;;;19.60;1.00;;;;;;2272799;61;1173;-86
2022/05/18 02:01:11;62024.00;0.21;107.98;0.00;0.00;0.62;;;;;19.50;1.00;;;;;;2272584;61;1078;-84
2022/05/18 02:03:38;9385.00;0.03;16.88;0.00;0.00;0.62;;;;;19.50;1.00;;;;;;2272425;61;1277;-83
2022/05/18 02:06:05;0.00;0.00;0.62;0.00;0.00;0.62;;;;;19.60;1.00;;;;;;2274686;61;1145;-85
2022/05/18 02:08:32;25244.00;0.08;44.35;0.00;0.00;0.62;;;;;19.80;1.00;;;;;;2276810;61;1191;-86
2022/05/18 02:10:59;96302.00;0.32;167.19;0.00;0.00;0.62;;;;;19.60;1.00;;;;;;2276817;61;1951;-86
2022/05/18 02:13:26;0.00;0.00;0.62;0.00;0.00;0.62;;;;;19.50;1.00;;;;;;2276574;61;1397;-84
2022/05/18 02:15:53;0.00;0.00;0.62;0.00;0.00;0.62;;;;;19.50;1.00;;;;;;2276788;61;1042;-85
2022/05/18 02:18:21;86791.00;0.29;150.77;0.00;0.00;0.62;;;;;19.20;1.00;;;;;;2276772;61;1083;-85
2022/05/18 02:20:48;816.00;0.00;2.03;0.00;0.00;0.62;;;;;19.20;1.00;;;;;;2276793;61;1095;-84
2022/05/18 02:23:16;90191.00;0.30;156.64;0.00;0.00;0.62;;;;;19.10;1.00;;;;;;2276834;61;1292;-85
2022/05/18 02:25:43;0.00;0.00;0.62;0.00;0.00;0.62;;;;;18.90;1.00;;;;;;2276697;61;1130;-87
2022/05/18 02:28:10;131630.00;0.44;228.14;0.00;0.00;0.62;;;;;18.90;1.00;;;;;;2276641;61;2372;-85
2022/05/18 02:30:37;0.00;0.00;0.62;0.00;0.00;0.62;;;;;19.00;1.00;;;;;;2276713;61;2001;-86
2022/05/18 02:33:04;0.00;0.00;0.62;0.00;0.00;0.62;;;;;19.10;1.00;;;;;;2276718;61;1309;-85
2022/05/18 02:35:33;0.00;0.00;0.62;0.00;0.00;0.62;;;;;19.10;1.00;;;;;;2276757;61;1043;-86
2022/05/18 02:38:00;0.00;0.00;0.62;0.00;0.00;0.62;;;;;19.30;1.00;;;;;;2276780;61;1118;-86
2022/05/18 02:40:27;0.00;0.00;0.62;0.00;0.00;0.62;;;;;19.20;1.00;;;;;;2276698;61;929;-86
2022/05/18 02:42:53;71332.00;0.24;124.06;0.00;0.00;0.62;;;;;19.10;1.00;;;;;;2276571;61;1386;-85
2022/05/18 02:45:20;44073.00;0.15;76.93;0.00;0.00;0.62;;;;;19.20;1.00;;;;;;2276682;61;1649;-86
2022/05/18 02:47:47;0.00;0.00;0.62;0.00;0.00;0.62;;;;;19.40;1.00;;;;;;2276767;61;1123;-85
2022/05/18 02:50:14;0.00;0.00;0.62;0.00;0.00;0.62;;;;;19.50;1.00;;;;;;2276689;61;1918;-86
2022/05/18 02:52:42;0.00;0.00;0.62;0.00;0.00;0.62;;;;;19.30;1.00;;;;;;2276585;61;1340;-85
2022/05/18 02:57:55;87456.00;0.29;151.91;19417.00;0.06;34.26;;;;;19.40;1.00;;;;;;2276716;61;695;-85
2022/05/18 03:00:22;0.00;0.00;0.62;0.00;0.00;0.62;;;;;19.50;1.00;;;;;;2276736;61;1056;-86
2022/05/18 03:02:49;0.00;0.00;0.62;0.00;0.00;0.62;;;;;19.10;1.00;;;;;;2276579;61;1293;-85
2022/05/18 03:05:16;0.00;0.00;0.62;0.00;0.00;0.62;;;;;19.20;1.00;;;;;;2276555;61;1306;-85
2022/05/18 03:07:44;0.00;0.00;0.62;0.00;0.00;0.62;;;;;19.20;1.00;;;;;;2276680;61;1084;-85
2022/05/18 03:10:15;0.00;0.00;0.62;0.00;0.00;0.62;;;;;19.10;1.00;;;;;;2276466;61;1994;-85
2022/05/18 03:12:42;0.00;0.00;0.62;0.00;0.00;0.62;;;;;19.10;1.00;;;;;;2276524;61;1472;-85
2022/05/18 03:15:10;0.00;0.00;0.62;0.00;0.00;0.62;;;;;19.20;1.00;;;;;;2276568;61;1106;-86
2022/05/18 03:17:38;80141.00;0.27;139.28;11295.00;0.04;20.19;;;;;19.40;1.00;;;;;;2276609;61;1047;-84
2022/05/18 03:20:06;30930.00;0.10;54.19;0.00;0.00;0.62;;;;;19.50;1.00;;;;;;2276569;61;980;-86
2022/05/18 03:25:19;0.00;0.00;0.62;0.00;0.00;0.62;;;;;19.00;1.00;;;;;;2276202;61;697;-86
2022/05/18 03:27:46;283731.00;0.95;489.95;27532.00;0.09;48.31;;;;;18.90;1.00;;;;;;2276523;61;1034;-86
2022/05/18 03:30:14;117365904.00;391.22;65486840.00;117320944.00;391.07;65411552.00;;;;;19.00;1.00;;;;;;2276569;61;1918;-86
2022/05/18 03:32:41;49503.00;0.17;86.33;0.00;0.00;0.62;;;;;19.10;1.00;;;;;;2276590;61;1395;-85
2022/05/18 03:35:09;101917.00;0.34;176.88;0.00;0.00;0.62;;;;;19.00;1.00;;;;;;2276480;61;900;-85
2022/05/18 03:37:36;120815.00;0.40;209.49;0.00;0.00;0.62;;;;;19.20;1.00;;;;;;2276620;61;1126;-85
2022/05/18 03:40:04;52228.00;0.17;91.04;0.00;0.00;0.62;;;;;19.10;1.00;;;;;;2276403;61;1126;-85
2022/05/18 03:42:32;0.00;0.00;0.62;0.00;0.00;0.62;;;;;19.30;1.00;;;;;;2276432;61;1313;-85
2022/05/18 03:44:59;0.00;0.00;0.62;0.00;0.00;0.62;;;;;19.30;1.00;;;;;;2276321;61;1065;-86
2022/05/18 03:47:26;0.00;0.00;0.62;0.00;0.00;0.62;;;;;19.20;1.00;;;;;;2276537;61;1126;-87
2022/05/18 03:49:53;0.00;0.00;0.62;0.00;0.00;0.62;;;;;19.30;1.00;;;;;;2276508;61;1914;-84
2022/05/18 03:52:20;0.00;0.00;0.62;0.00;0.00;0.62;;;;;19.40;1.00;;;;;;2276352;61;1364;-85
2022/05/18 03:54:46;0.00;0.00;0.62;0.00;0.00;0.62;;;;;19.40;1.00;;;;;;2276441;61;1032;-86
2022/05/18 03:57:13;0.00;0.00;0.62;0.00;0.00;0.62;;;;;19.30;1.00;;;;;;2276510;61;1116;-85
2022/05/18 03:59:42;185571.00;0.62;321.08;25535.00;0.09;44.85;;;;;19.20;1.00;;;;;;2276398;61;1730;-84
2022/05/18 04:02:09;0.00;0.00;0.62;0.00;0.00;0.62;;;;;19.00;1.00;;;;;;2276235;61;1427;-84
2022/05/18 04:04:36;151235.00;0.50;261.94;12547.00;0.04;22.36;;;;;19.20;1.00;;;;;;2276347;61;1131;-85
2022/05/18 04:07:03;0.00;0.00;0.62;0.00;0.00;0.62;;;;;19.10;1.00;;;;;;2276408;61;1076;-86
2022/05/18 04:09:30;0.00;0.00;0.62;0.00;0.00;0.62;;;;;18.90;1.00;;;;;;2276444;61;1144;-84
2022/05/18 04:11:57;88218.00;0.29;153.23;15272.00;0.05;27.08;;;;;19.20;1.00;;;;;;2276336;61;1981;-86
2022/05/18 04:14:24;87432.00;0.29;151.87;0.00;0.00;0.62;;;;;19.20;1.00;;;;;;2276400;61;1124;-86
2022/05/18 04:16:52;0.00;0.00;0.62;0.00;0.00;0.62;;;;;19.30;1.00;;;;;;2276216;61;1068;-85
2022/05/18 04:19:19;14244.00;0.05;25.30;0.00;0.00;0.62;;;;;19.20;1.00;;;;;;2276306;61;1032;-85
2022/05/18 04:21:46;20056.00;0.07;35.37;0.00;0.00;0.62;;;;;19.30;1.00;;;;;;2276347;61;1281;-86
2022/05/18 04:24:13;0.00;0.00;0.62;0.00;0.00;0.62;;;;;19.10;1.00;;;;;;2276360;61;1127;-86
2022/05/18 04:26:40;0.00;0.00;0.62;0.00;0.00;0.62;;;;;19.30;1.00;;;;;;2276377;61;1071;-86
2022/05/18 04:29:07;29893.00;0.10;52.40;0.00;0.00;0.62;;;;;19.50;1.00;;;;;;2276398;61;1134;-86
2022/05/18 04:31:34;0.00;0.00;0.62;0.00;0.00;0.62;;;;;19.60;1.00;;;;;;2276317;61;1989;-85
2022/05/18 04:34:02;76598.00;0.26;133.16;0.00;0.00;0.62;;;;;19.80;1.00;;;;;;2276293;61;2222;-86
2022/05/18 04:36:29;0.00;0.00;0.62;0.00;0.00;0.62;;;;;19.90;1.00;;;;;;2276227;61;1003;-84
2022/05/18 04:38:56;0.00;0.00;0.62;0.00;0.00;0.62;;;;;19.80;1.00;;;;;;2276315;61;1115;-87
2022/05/18 04:41:23;0.00;0.00;0.62;0.00;0.00;0.62;;;;;19.90;1.00;;;;;;2276256;61;2208;-86
2022/05/18 04:43:50;79130.00;0.26;137.53;0.00;0.00;0.62;;;;;19.80;1.00;;;;;;2276290;61;1296;-88
2022/05/18 04:46:17;346143.00;1.15;597.23;98664.00;0.33;171.27;;;;;19.90;1.00;;;;;;2276337;61;1055;-87
2022/05/18 04:48:44;19558.00;0.07;34.50;0.00;0.00;0.62;;;;;20.00;1.00;;;;;;2276336;61;1093;-86
2022/05/18 04:51:12;98598.00;0.33;171.15;0.00;0.00;0.62;;;;;20.00;1.00;;;;;;2276196;61;1998;-85
2022/05/18 04:53:39;41121.00;0.14;71.83;0.00;0.00;0.62;;;;;20.10;1.00;;;;;;2276207;61;1374;-85
2022/05/18 04:56:07;92961.00;0.31;161.42;0.00;0.00;0.62;;;;;20.00;1.00;;;;;;2276294;61;1080;-84
2022/05/18 04:58:34;26334.00;0.09;46.24;0.00;0.00;0.62;;;;;20.10;1.00;;;;;;2276389;61;970;-87
2022/05/18 05:01:05;33479.00;0.11;58.60;0.00;0.00;0.62;;;;;20.20;1.00;;;;;;2276258;61;1111;-86
2022/05/18 05:03:32;0.00;0.00;0.62;0.00;0.00;0.62;;;;;20.40;1.00;;;;;;2276253;61;1376;-86
2022/05/18 05:06:00;23875.00;0.08;41.98;0.00;0.00;0.62;;;;;20.40;1.00;;;;;;2276265;61;1138;-83
2022/05/18 05:08:28;18241.00;0.06;32.22;0.00;0.00;0.62;;;;;20.60;1.00;;;;;;2276202;61;1164;-84
2022/05/18 05:10:56;92806.00;0.31;161.15;0.00;0.00;0.62;;;;;20.80;1.00;;;;;;2276120;61;1994;-85
2022/05/18 05:13:23;220597.00;0.74;381.37;87142.00;0.29;151.37;;;;;20.30;1.00;;;;;;2276155;61;1536;-83
2022/05/18 05:15:54;171281.00;0.57;296.47;0.00;0.00;0.62;;;;;20.10;1.00;;;;;;2276203;61;1798;-85
2022/05/18 05:18:21;333158.00;1.11;574.91;40075.00;0.13;70.02;;;;;20.20;1.00;;;;;;2276288;61;1123;-85
2022/05/18 05:20:48;17242.00;0.06;30.49;0.00;0.00;0.62;;;;;20.50;1.00;;;;;;2276235;61;2394;-87
2022/05/18 05:23:15;421949.00;1.41;727.54;151948.00;0.51;263.16;;;;;20.80;1.00;;;;;;2276148;61;1470;-87
2022/05/18 05:25:43;0.00;0.00;0.62;0.00;0.00;0.62;;;;;20.70;1.00;;;;;;2276195;61;2015;-83
2022/05/18 05:28:10;475101.00;1.58;818.97;165079.00;0.55;285.79;;;;;20.70;1.00;;;;;;2276112;61;1582;-84
2022/05/18 05:30:37;47451.00;0.16;82.78;0.00;0.00;0.62;;;;;20.80;1.00;;;;;;2276199;61;1919;-88
2022/05/18 05:33:05;64610.00;0.22;112.45;0.00;0.00;0.62;;;;;20.90;1.00;;;;;;2276087;61;1383;-85
2022/05/18 05:35:32;19586.00;0.07;34.55;0.00;0.00;0.62;;;;;21.50;1.00;;;;;;2276230;61;1215;-86
2022/05/18 05:37:59;0.00;0.00;0.62;0.00;0.00;0.62;;;;;23.00;1.00;;;;;;2276076;61;1143;-83
2022/05/18 05:40:26;93652.00;0.31;162.61;0.00;0.00;0.62;;;;;24.90;1.00;;;;;;2276087;61;1147;-83
2022/05/18 05:42:54;0.00;0.00;0.62;0.00;0.00;0.62;;;;;26.50;1.00;;;;;;2276140;61;1370;-85
2022/05/18 05:45:21;0.00;0.00;0.62;0.00;0.00;0.62;;;;;27.60;1.00;;;;;;2276262;61;1086;-86
2022/05/18 05:47:48;0.00;0.00;0.62;0.00;0.00;0.62;;;;;28.60;1.00;;;;;;2276142;61;1197;-84
2022/05/18 05:50:15;0.00;0.00;0.62;0.00;0.00;0.62;;;;;29.40;1.00;;;;;;2276529;61;1920;-84
2022/05/18 05:52:42;0.00;0.00;0.62;0.00;0.00;0.62;;;;;30.10;1.00;;;;;;2276736;61;1600;-85
2022/05/18 05:55:10;0.00;0.00;0.62;0.00;0.00;0.62;;;;;30.60;1.00;;;;;;2276991;61;1103;-86
2022/05/18 05:57:36;0.00;0.00;0.62;0.00;0.00;0.62;;;;;31.20;1.00;;;;;;2276925;61;1080;-85
2022/05/18 06:00:07;0.00;0.00;0.62;0.00;0.00;0.62;;;;;31.60;1.00;;;;;;2276814;61;1088;-84
2022/05/18 06:02:34;54079.00;0.18;94.24;0.00;0.00;0.62;;;;;32.00;1.00;;;;;;2276513;61;1388;-84
2022/05/18 06:05:03;0.00;0.00;0.62;0.00;0.00;0.62;;;;;32.30;1.00;;;;;;2276767;61;1048;-84
2022/05/18 06:07:31;0.00;0.00;0.62;0.00;0.00;0.62;;;;;32.50;1.00;;;;;;2276775;61;1291;-84
2022/05/18 06:09:58;0.00;0.00;0.62;0.00;0.00;0.62;;;;;32.80;1.00;;;;;;2276857;61;1076;-85
2022/05/18 06:12:26;146347.00;0.49;253.51;0.00;0.00;0.62;;;;;33.10;1.00;;;;;;2276652;61;2034;-87
2022/05/18 06:14:52;0.00;0.00;0.62;0.00;0.00;0.62;;;;;33.70;1.00;;;;;;2276748;61;957;-84
2022/05/18 06:17:21;0.00;0.00;0.62;0.00;0.00;0.62;;;;;34.10;1.00;;;;;;2276795;61;1114;-84
2022/05/18 06:19:48;0.00;0.00;0.62;0.00;0.00;0.62;;;;;34.80;1.00;;;;;;2276675;61;1078;-85
2022/05/18 06:22:15;0.00;0.00;0.62;0.00;0.00;0.62;;;;;34.80;1.00;;;;;;2276859;61;1364;-87
2022/05/18 06:24:43;0.00;0.00;0.62;0.00;0.00;0.62;;;;;35.20;1.00;;;;;;2276879;61;1115;-86
2022/05/18 06:27:10;460750.00;1.54;794.27;70840.00;0.24;123.21;;;;;35.00;1.00;;;;;;2276903;61;1705;-85
2022/05/18 06:29:38;50487.00;0.17;88.03;0.00;0.00;0.62;;;;;34.90;1.00;;;;;;2276813;61;1044;-84
2022/05/18 06:32:06;87693.00;0.29;152.32;0.00;0.00;0.62;;;;;35.20;1.00;;;;;;2276670;61;1907;-84
2022/05/18 06:34:35;0.00;0.00;0.62;0.00;0.00;0.62;;;;;35.50;1.00;;;;;;2276772;61;1134;-84
2022/05/18 06:37:03;0.00;0.00;0.62;0.00;0.00;0.62;;;;;35.50;1.00;;;;;;2276831;61;1071;-84
2022/05/18 06:39:30;0.00;0.00;0.62;0.00;0.00;0.62;;;;;35.10;1.00;;;;;;2276772;61;1100;-86
2022/05/18 06:41:59;223368.00;0.74;386.14;51853.00;0.17;90.39;;;;;35.20;1.00;;;;;;2276707;61;1619;-87
2022/05/18 06:44:26;135667.00;0.45;235.10;27950.00;0.09;49.03;;;;;35.00;1.00;;;;;;2276818;61;1071;-86
2022/05/18 06:46:53;0.00;0.00;0.62;0.00;0.00;0.62;;;;;35.40;1.00;;;;;;2276717;61;1073;-84
2022/05/18 06:49:20;81201.00;0.27;141.11;0.00;0.00;0.62;;;;;35.40;1.00;;;;;;2276713;61;1734;-86
2022/05/18 06:51:49;0.00;0.00;0.62;0.00;0.00;0.62;;;;;35.50;1.00;;;;;;2276626;61;1911;-87
2022/05/18 06:54:16;108738.00;0.36;188.65;0.00;0.00;0.62;;;;;35.70;1.00;;;;;;2276548;61;1742;-86
2022/05/18 06:56:44;0.00;0.00;0.62;0.00;0.00;0.62;;;;;35.50;1.00;;;;;;2276629;61;1150;-87
2022/05/18 06:59:13;89765.00;0.30;155.90;0.00;0.00;0.62;;;;;35.80;1.00;;;;;;2276618;61;1447;-88
2022/05/18 07:01:40;118790728.00;395.97;67903152.00;0.00;0.00;0.62;;;;;36.40;1.00;;;;;;2276750;61;1023;-88
2022/05/18 07:04:09;3173.00;0.01;6.12;0.00;0.00;0.62;;;;;37.00;1.00;;;;;;2276599;61;1658;-87
2022/05/18 07:06:39;5830.00;0.02;10.72;0.00;0.00;0.62;;;;;36.80;1.00;;;;;;2276436;61;1028;-87
2022/05/18 07:09:10;63705.00;0.21;110.88;0.00;0.00;0.62;;;;;37.00;1.00;;;;;;2276577;61;1055;-87
2022/05/18 07:11:37;53221.00;0.18;92.76;0.00;0.00;0.62;;;;;37.20;1.00;;;;;;2276588;61;2005;-90
2022/05/18 07:14:05;108987.00;0.36;189.08;38871.00;0.13;67.94;;;;;37.10;1.00;;;;;;2276668;61;1287;-87
2022/05/18 07:16:34;101145.00;0.34;175.55;0.00;0.00;0.62;;;;;37.20;1.00;;;;;;2276445;61;1006;-88
2022/05/18 07:19:01;83709.00;0.28;145.44;19612.00;0.07;34.60;;;;;37.30;1.00;;;;;;2276607;61;1008;-88
2022/05/18 07:21:29;0.00;0.00;0.62;0.00;0.00;0.62;;;;;37.70;1.00;;;;;;2276595;61;1126;-88
2022/05/18 07:23:56;143880.00;0.48;249.26;26029.00;0.09;45.71;;;;;37.30;1.00;;;;;;2276534;61;1358;-88
2022/05/18 07:26:27;143421.00;0.48;248.47;0.00;0.00;0.62;;;;;36.90;1.00;;;;;;2276582;61;1127;-88
2022/05/18 07:28:54;32847.00;0.11;57.51;0.00;0.00;0.62;;;;;37.00;1.00;;;;;;2276597;61;1030;-88
2022/05/18 07:31:21;134901.00;0.45;233.78;0.00;0.00;0.62;;;;;37.30;1.00;;;;;;2276476;61;1911;-88
2022/05/18 07:33:48;37793.00;0.13;66.07;0.00;0.00;0.62;;;;;38.00;1.00;;;;;;2276459;61;1408;-88
2022/05/18 07:36:16;315711.00;1.05;544.93;103052.00;0.34;178.84;;;;;37.50;1.00;;;;;;2276497;61;1059;-88
2022/05/18 07:38:44;44089.00;0.15;76.96;0.00;0.00;0.62;;;;;37.60;1.00;;;;;;2276544;61;1010;-86
2022/05/18 07:41:14;221295.00;0.74;382.57;0.00;0.00;0.62;;;;;37.90;1.00;;;;;;2276518;61;1134;-88
2022/05/18 07:43:43;0.00;0.00;0.62;0.00;0.00;0.62;;;;;37.90;1.00;;;;;;2276509;61;1364;-89
2022/05/18 07:46:11;327881.00;1.09;565.84;119452.00;0.40;207.14;;;;;38.20;1.00;;;;;;2276530;61;1210;-89
2022/05/18 07:48:39;179306.00;0.60;310.29;7563.00;0.03;13.73;;;;;38.10;1.00;;;;;;2276525;61;1126;-87
2022/05/18 07:51:06;225985.00;0.75;390.64;13723.00;0.05;24.40;;;;;37.90;1.00;;;;;;2276415;61;1923;-87
2022/05/18 07:53:33;0.00;0.00;0.62;0.00;0.00;0.62;;;;;38.00;1.00;;;;;;2276426;61;1647;-88
2022/05/18 07:56:00;99720.00;0.33;173.09;34614.00;0.12;60.57;;;;;38.10;1.00;;;;;;2276482;61;1023;-87
2022/05/18 07:58:27;0.00;0.00;0.62;0.00;0.00;0.62;;;;;37.90;1.00;;;;;;2276537;61;1016;-87
2022/05/18 08:00:56;4870.00;0.02;9.06;0.00;0.00;0.62;;;;;37.60;1.00;;;;;;2276469;61;1122;-88
2022/05/18 08:03:22;69312.00;0.23;120.57;0.00;0.00;0.62;;;;;37.80;1.00;;;;;;2276393;61;1348;-88
2022/05/18 08:05:50;101855.00;0.34;176.77;0.00;0.00;0.62;;;;;37.70;1.00;;;;;;2276326;61;1027;-87
2022/05/18 08:08:19;174579.00;0.58;302.15;0.00;0.00;0.62;;;;;37.30;1.00;;;;;;2276356;61;993;-87
2022/05/18 08:16:19;94247.00;0.31;163.64;0.00;0.00;0.62;;;;;37.40;1.00;;;;;;2276371;61;706;-87
2022/05/18 08:18:48;304730.00;1.02;526.05;14694.00;0.05;26.08;;;;;37.20;1.00;;;;;;2276274;61;1669;-87
2022/05/18 08:21:15;440888.00;1.47;760.11;47063.00;0.16;82.11;;;;;37.30;1.00;;;;;;2276420;61;1036;-88
2022/05/18 08:23:42;145414.00;0.48;251.90;0.00;0.00;0.62;;;;;37.80;1.00;;;;;;2276383;61;2383;-87
2022/05/18 08:26:09;366656.00;1.22;632.49;66027.00;0.22;114.89;;;;;37.60;1.00;;;;;;2276331;61;1727;-87
2022/05/18 08:28:36;607106.00;2.02;1046.49;49955.00;0.17;87.11;;;;;37.30;1.00;;;;;;2276359;61;1235;-88
2022/05/18 08:31:04;701711.00;2.34;1210.21;28239.00;0.09;49.53;;;;;37.30;1.00;;;;;;2276307;61;1905;-87
2022/05/18 08:33:32;495380.00;1.65;853.87;0.00;0.00;0.62;;;;;37.10;1.00;;;;;;2276292;61;1285;-87
2022/05/18 08:35:59;900038.00;3.00;1556.19;54240.00;0.18;94.52;;;;;37.40;1.00;;;;;;2276280;61;1035;-87
2022/05/18 08:38:27;597417.00;1.99;1029.76;10475.00;0.03;18.77;;;;;36.90;1.00;;;;;;2276338;61;1082;-87
2022/05/18 08:40:59;357763.00;1.19;617.20;0.00;0.00;0.62;;;;;37.10;1.00;;;;;;2276293;61;904;-87
2022/05/18 08:43:29;873081.00;2.91;1508.89;45285.00;0.15;79.03;;;;;36.80;1.00;;;;;;2276272;61;1440;-86
2022/05/18 08:46:06;487784.00;1.63;840.79;0.00;0.00;0.62;;;;;36.70;1.00;;;;;;2276391;61;903;-87
2022/05/18 08:48:44;502000.00;1.67;865.27;0.00;0.00;0.62;;;;;36.50;1.00;;;;;;2276327;61;1077;-86
2022/05/18 08:51:39;638212.00;2.13;1100.25;69859.00;0.23;121.52;;;;;36.10;1.00;;;;;;2276309;61;2039;-86
2022/05/18 08:54:24;221235.00;0.74;382.47;61644.00;0.21;107.32;;;;;35.10;1.00;;;;;;2275779;61;1310;-87
2022/05/18 08:56:53;595618.00;1.99;1026.65;82691.00;0.28;143.69;;;;;34.40;1.00;;;;;;2276353;61;1720;-87
2022/05/18 08:59:26;1028152.00;3.43;1782.40;143614.00;0.48;248.80;;;;;33.60;1.00;;;;;;2276359;61;1031;-88
2022/05/18 09:01:58;682226.00;2.27;1176.43;73929.00;0.25;128.55;;;;;33.30;1.00;;;;;;2276220;61;1380;-87
2022/05/18 09:04:32;825304.00;2.75;1425.29;70296.00;0.23;122.27;;;;;33.50;1.00;;;;;;2276194;61;1700;-87
2022/05/18 09:07:05;1020494.00;3.40;1768.80;111732.00;0.37;193.82;;;;;33.80;1.00;;;;;;2276263;61;1133;-87
2022/05/18 09:12:29;135808.00;0.45;235.34;0.00;0.00;0.62;;;;;34.40;1.00;;;;;;2276233;61;1978;-86
2022/05/18 09:14:56;991470.00;3.30;1717.37;88884.00;0.30;154.38;;;;;34.20;1.00;;;;;;2276129;61;1040;-88
2022/05/18 09:17:29;949234.00;3.16;1642.76;93274.00;0.31;161.96;;;;;33.50;1.00;;;;;;2276085;61;1035;-87
2022/05/18 09:20:13;828198.00;2.76;1430.35;105660.00;0.35;183.34;;;;;32.70;1.00;;;;;;2276175;61;1821;-87
2022/05/18 09:23:00;597076.00;1.99;1029.17;40372.00;0.13;70.53;;;;;32.30;1.00;;;;;;2275986;61;1609;-86
2022/05/18 09:25:42;295566.00;0.99;510.30;8629.00;0.03;15.57;;;;;32.30;1.00;;;;;;2276907;61;1065;-86
2022/05/18 09:28:23;276789.00;0.92;478.02;10407.00;0.03;18.65;;;;;32.50;1.00;;;;;;2276895;61;1144;-87
2022/05/18 09:31:02;216688.00;0.72;374.64;8187.00;0.03;14.81;;;;;32.90;1.00;;;;;;2276906;61;2015;-87
2022/05/18 09:33:52;43355.00;0.14;75.69;0.00;0.00;0.62;;;;;32.90;1.00;;;;;;2276750;61;2025;-86
2022/05/18 09:36:37;0.00;0.00;0.62;0.00;0.00;0.62;;;;;32.80;1.00;;;;;;2276969;61;904;-87
2022/05/18 09:39:08;0.00;0.00;0.62;0.00;0.00;0.62;;;;;33.00;1.00;;;;;;2276888;61;945;-85
2022/05/18 09:41:40;75237.00;0.25;130.81;669.00;0.00;1.78;;;;;32.30;1.00;;;;;;2276924;61;1149;-87
2022/05/18 09:44:18;0.00;0.00;0.62;0.00;0.00;0.62;;;;;32.00;1.00;;;;;;2276865;61;1404;-86
2022/05/18 09:46:47;36891.00;0.12;64.51;0.00;0.00;0.62;;;;;32.10;1.00;;;;;;2276957;61;1050;-86
2022/05/18 09:49:22;13461.00;0.04;23.94;0.00;0.00;0.62;;;;;31.70;1.00;;;;;;2276827;61;1573;-89
2022/05/18 09:51:52;18086.00;0.06;31.96;0.00;0.00;0.62;;;;;31.90;1.00;;;;;;2276820;61;1923;-86
2022/05/18 09:54:20;18014.00;0.06;31.83;0.00;0.00;0.62;;;;;32.30;1.00;;;;;;2276908;61;1102;-87
2022/05/18 09:56:54;97422.00;0.32;169.12;32515.00;0.11;56.94;;;;;31.30;1.00;;;;;;2277009;61;1187;-88
2022/05/18 09:59:28;0.00;0.00;0.62;0.00;0.00;0.62;;;;;30.80;1.00;;;;;;2276895;61;1108;-88
2022/05/18 10:07:30;18382.00;0.06;32.47;0.00;0.00;0.62;;;;;30.60;1.00;;;;;;2276927;61;682;-88
2022/05/18 10:10:12;422229.00;1.41;728.02;100106.00;0.33;173.75;;;;;31.10;1.00;;;;;;2276905;61;1094;-86
2022/05/18 10:12:46;21483.00;0.07;37.84;0.00;0.00;0.62;;;;;31.20;1.00;;;;;;2276753;61;1984;-87
2022/05/18 10:15:27;38658.00;0.13;67.57;0.00;0.00;0.62;;;;;31.60;1.00;;;;;;2276886;61;1053;-87
2022/05/18 10:17:56;0.00;0.00;0.62;0.00;0.00;0.62;;;;;31.40;1.00;;;;;;2276875;61;1076;-87
2022/05/18 10:20:28;43249.00;0.14;75.51;0.00;0.00;0.62;;;;;31.00;1.00;;;;;;2276866;61;1016;-87
2022/05/18 10:23:01;93419.00;0.31;162.21;24421.00;0.08;42.93;;;;;31.20;1.00;;;;;;2276806;61;2065;-87
2022/05/18 10:28:01;691868.00;2.31;1193.14;24162.00;0.08;42.48;;;;;31.10;1.00;;;;;;2274123;61;1498;-87
2022/05/18 10:30:31;189559.00;0.63;327.95;0.00;0.00;0.62;;;;;31.60;1.00;;;;;;2272570;61;1484;-86
2022/05/18 10:33:06;106617.00;0.36;184.99;0.00;0.00;0.62;;;;;31.30;1.00;;;;;;2272572;61;1929;-88
2022/05/18 10:35:49;126873.00;0.42;219.94;13519.00;0.05;24.05;;;;;31.10;1.00;;;;;;2295358;40;3629;-88
2022/05/18 10:38:22;0.00;0.00;0.62;0.00;0.00;0.62;;;;;30.70;1.00;;;;;;2272603;61;1735;-90
2022/05/18 10:40:50;167626.00;0.56;290.18;0.00;0.00;0.62;;;;;30.70;1.00;;;;;;2272741;61;998;-88